Time;durP1;ratioP1;P1;durP2;ratioP2;P2;SDS_P1;SDS_P2;PMS_P1;PMS_P2;Temp;Humidity;BMP_temperature;BMP_pressure;BME280_temperature;BME280_humidity;BME280_pressure;Samples;Min_cycle;Max_cycle;Signal;HPM_P1;HPM_P2
2021/08/03 00:01:59;;;;;;;3.85;3.20;;;;;;;;;;5051882;28;20182;-68
2021/08/03 00:04:25;;;;;;;6.63;3.58;;;;;;;;;;5052256;28;20186;-68
2021/08/03 00:06:56;;;;;;;4.80;3.05;;;;;;;;;;5046230;28;20290;-69
2021/08/03 00:09:21;;;;;;;5.78;2.92;;;;;;;;;;5037583;28;20635;-69
2021/08/03 00:11:47;;;;;;;7.10;3.13;;;;;;;;;;5055958;28;20193;-69
2021/08/03 00:14:12;;;;;;;5.53;3.63;;;;;;;;;;5050067;28;20276;-69
2021/08/03 00:16:38;;;;;;;5.82;3.05;;;;;;;;;;5052441;28;20229;-69
2021/08/03 00:19:04;;;;;;;5.97;3.22;;;;;;;;;;5051937;28;20177;-68
2021/08/03 00:21:29;;;;;;;4.60;3.40;;;;;;;;;;5059074;28;20189;-69
2021/08/03 00:23:55;;;;;;;5.07;3.22;;;;;;;;;;5045710;28;20643;-68
2021/08/03 00:26:21;;;;;;;8.55;3.65;;;;;;;;;;5046390;28;20259;-69
2021/08/03 00:28:49;;;;;;;5.50;3.25;;;;;;;;;;5048417;28;20644;-69
2021/08/03 00:31:16;;;;;;;4.78;2.53;;;;;;;;;;5048473;28;20206;-69
2021/08/03 00:33:43;;;;;;;5.07;3.13;;;;;;;;;;5049364;28;20260;-69
2021/08/03 00:36:08;;;;;;;3.43;3.13;;;;;;;;;;5052425;28;20201;-69
2021/08/03 00:38:33;;;;;;;4.50;2.50;;;;;;;;;;5039286;28;20905;-71
2021/08/03 00:41:01;;;;;;;3.60;2.90;;;;;;;;;;5041349;28;20200;-70
2021/08/03 00:43:26;;;;;;;5.55;2.85;;;;;;;;;;5046837;28;20268;-70
2021/08/03 00:45:51;;;;;;;8.00;3.43;;;;;;;;;;5046190;28;20281;-69
2021/08/03 00:48:17;;;;;;;5.57;3.63;;;;;;;;;;5046907;28;20182;-70
2021/08/03 00:50:42;;;;;;;4.13;3.03;;;;;;;;;;5057504;28;20228;-70
2021/08/03 00:53:07;;;;;;;4.33;3.57;;;;;;;;;;5039448;28;20218;-70
2021/08/03 00:55:33;;;;;;;6.35;3.60;;;;;;;;;;5047987;28;20222;-70
2021/08/03 00:57:59;;;;;;;5.50;4.30;;;;;;;;;;5042363;28;20181;-67
2021/08/03 01:00:24;;;;;;;5.53;3.78;;;;;;;;;;5048397;28;20197;-70
2021/08/03 01:02:49;;;;;;;5.97;3.73;;;;;;;;;;5049787;28;20673;-69
2021/08/03 01:05:14;;;;;;;7.43;4.23;;;;;;;;;;5051713;28;20220;-70
2021/08/03 01:07:46;;;;;;;6.97;4.47;;;;;;;;;;5051617;28;20634;-70
2021/08/03 01:10:16;;;;;;;4.70;3.90;;;;;;;;;;5048750;28;20181;-71
2021/08/03 01:12:50;;;;;;;8.90;3.80;;;;;;;;;;5048490;28;20213;-70
2021/08/03 01:15:17;;;;;;;5.20;3.60;;;;;;;;;;5049332;28;20288;-70
2021/08/03 01:17:42;;;;;;;4.97;3.60;;;;;;;;;;5048550;28;20257;-70
2021/08/03 01:20:11;;;;;;;4.00;3.30;;;;;;;;;;5048652;28;20293;-68
2021/08/03 01:22:36;;;;;;;6.53;4.00;;;;;;;;;;5050047;28;20271;-70
2021/08/03 01:25:10;;;;;;;5.67;3.60;;;;;;;;;;5052060;28;20288;-70
2021/08/03 01:27:44;;;;;;;4.83;3.60;;;;;;;;;;5050142;28;20951;-70
2021/08/03 01:30:11;;;;;;;4.63;3.87;;;;;;;;;;5052138;28;20708;-70
2021/08/03 01:32:41;;;;;;;5.23;4.00;;;;;;;;;;5032403;28;20216;-68
2021/08/03 01:35:06;;;;;;;5.33;3.53;;;;;;;;;;5051640;28;20204;-70
2021/08/03 01:37:32;;;;;;;7.68;4.32;;;;;;;;;;5049312;28;20181;-70
2021/08/03 01:39:59;;;;;;;6.57;3.73;;;;;;;;;;5053022;28;20188;-69
2021/08/03 01:42:25;;;;;;;6.33;4.00;;;;;;;;;;5049769;28;20192;-71
2021/08/03 01:44:52;;;;;;;5.60;4.47;;;;;;;;;;5046205;28;20633;-70
2021/08/03 01:47:18;;;;;;;7.07;4.10;;;;;;;;;;5032344;28;20303;-70
2021/08/03 01:49:44;;;;;;;6.30;4.10;;;;;;;;;;5055215;28;20189;-71
2021/08/03 01:52:10;;;;;;;7.87;4.83;;;;;;;;;;5050150;28;20723;-70
2021/08/03 01:54:35;;;;;;;6.43;4.03;;;;;;;;;;5035964;28;20185;-70
2021/08/03 01:57:02;;;;;;;4.70;3.90;;;;;;;;;;5046177;28;20560;-70
2021/08/03 01:59:27;;;;;;;6.10;3.53;;;;;;;;;;5024774;28;20181;-70
2021/08/03 02:01:53;;;;;;;6.00;4.97;;;;;;;;;;5047289;28;20177;-70
2021/08/03 02:04:19;;;;;;;5.53;3.80;;;;;;;;;;5048319;28;20174;-70
2021/08/03 02:06:45;;;;;;;5.27;3.77;;;;;;;;;;5062173;22;20222;-71
2021/08/03 02:09:11;;;;;;;5.47;3.80;;;;;;;;;;5031146;28;20186;-70
2021/08/03 02:11:37;;;;;;;5.63;3.47;;;;;;;;;;5046748;28;20220;-71
2021/08/03 02:14:02;;;;;;;5.80;4.20;;;;;;;;;;5049274;28;20177;-71
2021/08/03 02:16:27;;;;;;;5.17;3.87;;;;;;;;;;5045268;28;20583;-71
2021/08/03 02:18:53;;;;;;;5.27;4.00;;;;;;;;;;5053233;28;20184;-71
2021/08/03 02:21:18;;;;;;;5.20;4.20;;;;;;;;;;5055851;28;20639;-72
2021/08/03 02:23:44;;;;;;;7.47;4.53;;;;;;;;;;5048192;28;20228;-71
2021/08/03 02:26:10;;;;;;;6.40;4.37;;;;;;;;;;5050785;28;20221;-71
2021/08/03 02:28:35;;;;;;;8.43;4.50;;;;;;;;;;5049302;28;20222;-71
2021/08/03 02:31:04;;;;;;;6.20;3.77;;;;;;;;;;5052357;28;20244;-71
2021/08/03 02:33:33;;;;;;;5.53;3.83;;;;;;;;;;5037272;28;20273;-71
2021/08/03 02:36:06;;;;;;;5.30;4.00;;;;;;;;;;5053593;28;20578;-71
2021/08/03 02:38:33;;;;;;;3.67;3.20;;;;;;;;;;5049439;28;20184;-71
2021/08/03 02:40:59;;;;;;;6.70;4.00;;;;;;;;;;5058463;28;20563;-71
2021/08/03 02:43:27;;;;;;;5.97;3.50;;;;;;;;;;5053794;28;20177;-70
2021/08/03 02:45:54;;;;;;;7.53;3.70;;;;;;;;;;5057096;28;20201;-71
2021/08/03 02:48:21;;;;;;;4.47;3.07;;;;;;;;;;5055814;28;20628;-71
2021/08/03 02:50:46;;;;;;;5.35;2.88;;;;;;;;;;5051560;28;20625;-71
2021/08/03 02:53:24;;;;;;;5.00;3.00;;;;;;;;;;5054702;28;20201;-71
2021/08/03 02:56:09;;;;;;;6.30;3.03;;;;;;;;;;5055353;28;20216;-71
2021/08/03 02:58:40;;;;;;;5.53;3.63;;;;;;;;;;5041249;28;20184;-70
2021/08/03 03:01:07;;;;;;;4.67;3.37;;;;;;;;;;5041931;28;20185;-72
2021/08/03 03:03:34;;;;;;;6.43;3.80;;;;;;;;;;5035101;28;20236;-70
2021/08/03 03:06:02;;;;;;;4.90;3.20;;;;;;;;;;5035390;28;20694;-70
2021/08/03 03:08:28;;;;;;;5.67;3.07;;;;;;;;;;5031069;28;20193;-71
2021/08/03 03:10:54;;;;;;;5.20;3.15;;;;;;;;;;5031673;28;20730;-71
2021/08/03 03:13:37;;;;;;;4.93;2.88;;;;;;;;;;5037097;28;20182;-70
2021/08/03 03:16:03;;;;;;;4.10;2.72;;;;;;;;;;5032576;28;20255;-71
2021/08/03 03:18:28;;;;;;;4.53;2.47;;;;;;;;;;5037570;28;20169;-71
2021/08/03 03:20:54;;;;;;;2.72;2.20;;;;;;;;;;5038189;28;20177;-72
2021/08/03 03:23:22;;;;;;;4.07;2.10;;;;;;;;;;5044765;28;20178;-72
2021/08/03 03:25:49;;;;;;;4.38;2.70;;;;;;;;;;5032539;28;20574;-71
2021/08/03 03:28:17;;;;;;;4.43;2.10;;;;;;;;;;5034821;28;20257;-71
2021/08/03 03:30:43;;;;;;;3.93;2.40;;;;;;;;;;5031059;28;20237;-71
2021/08/03 03:33:08;;;;;;;3.80;2.20;;;;;;;;;;5033768;28;20604;-71
2021/08/03 03:35:34;;;;;;;4.18;2.20;;;;;;;;;;5036889;28;20229;-71
2021/08/03 03:37:59;;;;;;;3.30;2.47;;;;;;;;;;5036458;28;20197;-71
2021/08/03 03:40:26;;;;;;;2.60;2.40;;;;;;;;;;5036936;28;20193;-71
2021/08/03 03:42:54;;;;;;;4.68;2.20;;;;;;;;;;5032325;28;20265;-71
2021/08/03 03:45:19;;;;;;;2.93;2.63;;;;;;;;;;5034730;28;20213;-71
2021/08/03 03:47:56;;;;;;;2.77;2.10;;;;;;;;;;5033219;28;20549;-71
2021/08/03 03:50:22;;;;;;;1.80;1.67;;;;;;;;;;5031861;28;20311;-71
2021/08/03 03:52:55;;;;;;;3.43;1.83;;;;;;;;;;5032145;28;20271;-71
2021/08/03 03:55:21;;;;;;;3.90;1.83;;;;;;;;;;5031804;28;20253;-72
2021/08/03 03:57:47;;;;;;;3.33;2.00;;;;;;;;;;5036970;28;20178;-72
2021/08/03 04:00:15;;;;;;;3.50;1.97;;;;;;;;;;5033180;28;20174;-71
2021/08/03 04:02:42;;;;;;;7.07;2.78;;;;;;;;;;5031359;28;20197;-72
2021/08/03 04:05:09;;;;;;;2.90;2.07;;;;;;;;;;5017376;28;20564;-72
2021/08/03 04:07:34;;;;;;;3.80;1.80;;;;;;;;;;5032622;28;20186;-72
2021/08/03 04:10:00;;;;;;;3.90;2.38;;;;;;;;;;5035256;28;20717;-72
2021/08/03 04:12:25;;;;;;;3.85;2.03;;;;;;;;;;5030585;28;20229;-71
2021/08/03 04:14:50;;;;;;;3.78;2.15;;;;;;;;;;5034647;28;20643;-71
2021/08/03 04:17:15;;;;;;;3.10;1.90;;;;;;;;;;5031953;28;20259;-71
2021/08/03 04:19:41;;;;;;;4.95;2.15;;;;;;;;;;5035396;28;20622;-72
2021/08/03 04:22:06;;;;;;;2.28;2.08;;;;;;;;;;5031570;28;20181;-71
2021/08/03 04:24:31;;;;;;;5.55;2.30;;;;;;;;;;5032171;28;20239;-72
2021/08/03 04:26:56;;;;;;;2.17;1.98;;;;;;;;;;5031565;28;20206;-71
2021/08/03 04:29:21;;;;;;;2.22;2.03;;;;;;;;;;5033633;28;20194;-71
2021/08/03 04:31:46;;;;;;;3.13;1.83;;;;;;;;;;5031748;28;20294;-72
2021/08/03 04:34:12;;;;;;;4.30;2.10;;;;;;;;;;5037973;28;20659;-71
2021/08/03 04:36:37;;;;;;;2.53;1.90;;;;;;;;;;5032899;28;20201;-71
2021/08/03 04:39:03;;;;;;;4.93;1.90;;;;;;;;;;5039512;28;20659;-71
2021/08/03 04:41:28;;;;;;;2.47;1.60;;;;;;;;;;5020818;28;20258;-70
2021/08/03 04:43:53;;;;;;;2.38;1.70;;;;;;;;;;5049146;28;20188;-71
2021/08/03 04:46:18;;;;;;;3.20;1.80;;;;;;;;;;5049902;28;20197;-72
2021/08/03 04:48:43;;;;;;;2.08;1.70;;;;;;;;;;5052179;28;20652;-71
2021/08/03 04:51:09;;;;;;;2.15;1.73;;;;;;;;;;5038796;28;20224;-71
2021/08/03 04:53:34;;;;;;;4.25;1.60;;;;;;;;;;5028155;28;20181;-71
2021/08/03 04:55:59;;;;;;;2.33;1.60;;;;;;;;;;5030038;28;20209;-71
2021/08/03 04:58:24;;;;;;;3.72;2.08;;;;;;;;;;5030971;28;20174;-71
2021/08/03 05:00:50;;;;;;;3.58;1.80;;;;;;;;;;5032198;28;20185;-72
2021/08/03 05:03:15;;;;;;;2.13;1.73;;;;;;;;;;5036906;28;20182;-71
2021/08/03 05:05:41;;;;;;;2.63;1.70;;;;;;;;;;5030832;28;20201;-71
2021/08/03 05:08:06;;;;;;;3.00;1.63;;;;;;;;;;5031316;28;20251;-71
2021/08/03 05:10:32;;;;;;;4.00;1.80;;;;;;;;;;5035337;28;20178;-71
2021/08/03 05:12:57;;;;;;;4.07;1.45;;;;;;;;;;5036610;28;20214;-71
2021/08/03 05:15:23;;;;;;;2.13;1.52;;;;;;;;;;5018992;28;20214;-71
2021/08/03 05:17:48;;;;;;;4.53;1.80;;;;;;;;;;5030562;28;20186;-71
2021/08/03 05:20:14;;;;;;;2.40;1.67;;;;;;;;;;5030147;28;20178;-71
2021/08/03 05:22:39;;;;;;;3.88;1.98;;;;;;;;;;5038629;28;20528;-71
2021/08/03 05:25:05;;;;;;;3.75;2.40;;;;;;;;;;5035647;28;20716;-71
2021/08/03 05:27:30;;;;;;;5.85;2.10;;;;;;;;;;5031423;28;20269;-72
2021/08/03 05:29:55;;;;;;;2.40;1.50;;;;;;;;;;5034362;28;20216;-71
2021/08/03 05:32:21;;;;;;;4.70;2.58;;;;;;;;;;5021656;28;20611;-71
2021/08/03 05:34:46;;;;;;;4.60;1.88;;;;;;;;;;5037015;28;20181;-71
2021/08/03 05:37:11;;;;;;;5.50;2.93;;;;;;;;;;5032958;28;20224;-71
2021/08/03 05:39:36;;;;;;;6.63;3.20;;;;;;;;;;5035241;28;20430;-71
2021/08/03 05:42:02;;;;;;;6.57;3.47;;;;;;;;;;5034424;28;20181;-71
2021/08/03 05:44:28;;;;;;;6.72;3.15;;;;;;;;;;5029886;28;20477;-71
2021/08/03 05:46:53;;;;;;;5.55;3.03;;;;;;;;;;5030315;28;20212;-71
2021/08/03 05:49:18;;;;;;;7.78;3.83;;;;;;;;;;5019015;28;20184;-70
2021/08/03 05:51:43;;;;;;;7.93;2.78;;;;;;;;;;5030328;28;21825;-71
2021/08/03 05:54:09;;;;;;;6.95;2.85;;;;;;;;;;5032110;28;20643;-71
2021/08/03 05:56:35;;;;;;;3.55;2.50;;;;;;;;;;5031316;28;20229;-71
2021/08/03 05:59:00;;;;;;;4.07;1.50;;;;;;;;;;5039001;28;20181;-71
2021/08/03 06:01:25;;;;;;;2.83;1.40;;;;;;;;;;5020650;28;20728;-71
2021/08/03 06:03:50;;;;;;;3.08;1.52;;;;;;;;;;5018064;28;20190;-71
2021/08/03 06:06:16;;;;;;;2.57;1.40;;;;;;;;;;5015289;28;20321;-71
2021/08/03 06:08:42;;;;;;;3.90;2.08;;;;;;;;;;5028669;28;20430;-71
2021/08/03 06:11:08;;;;;;;4.07;1.70;;;;;;;;;;5027693;28;20210;-71
2021/08/03 06:13:35;;;;;;;2.58;1.48;;;;;;;;;;5022989;28;20173;-71
2021/08/03 06:16:01;;;;;;;3.63;1.70;;;;;;;;;;5028764;28;20687;-70
2021/08/03 06:18:31;;;;;;;3.63;1.60;;;;;;;;;;5034285;28;20239;-71
2021/08/03 06:20:56;;;;;;;4.45;1.40;;;;;;;;;;5029662;28;20655;-71
2021/08/03 06:23:25;;;;;;;3.25;1.55;;;;;;;;;;5035275;28;20222;-71
2021/08/03 06:25:51;;;;;;;7.40;1.42;;;;;;;;;;5030753;28;20283;-70
2021/08/03 06:28:18;;;;;;;1.77;1.20;;;;;;;;;;5035184;28;20213;-71
2021/08/03 06:30:46;;;;;;;2.90;1.42;;;;;;;;;;5028483;28;20192;-71
2021/08/03 06:33:11;;;;;;;4.65;1.45;;;;;;;;;;5030111;28;20185;-71
2021/08/03 06:35:36;;;;;;;6.63;1.58;;;;;;;;;;5030780;28;20240;-71
2021/08/03 06:38:02;;;;;;;3.67;1.65;;;;;;;;;;5032161;28;20220;-71
2021/08/03 06:40:28;;;;;;;3.83;2.20;;;;;;;;;;5031456;28;20190;-71
2021/08/03 06:42:59;;;;;;;3.22;2.30;;;;;;;;;;5028594;28;20273;-71
2021/08/03 06:45:25;;;;;;;3.72;2.35;;;;;;;;;;5029116;28;20820;-70
2021/08/03 06:48:11;;;;;;;4.18;2.30;;;;;;;;;;5029191;28;20186;-71
2021/08/03 06:50:52;;;;;;;4.10;2.72;;;;;;;;;;5016748;28;20196;-70
2021/08/03 06:53:18;;;;;;;3.55;2.00;;;;;;;;;;5031951;28;20193;-71
2021/08/03 06:55:46;;;;;;;3.85;2.20;;;;;;;;;;5031319;28;20575;-71
2021/08/03 06:58:38;;;;;;;4.40;2.75;;;;;;;;;;5029112;28;20182;-70
2021/08/03 07:01:04;;;;;;;6.55;3.17;;;;;;;;;;5029653;28;20196;-71
2021/08/03 07:03:32;;;;;;;5.10;3.03;;;;;;;;;;5029813;28;20632;-71
2021/08/03 07:05:57;;;;;;;7.55;2.72;;;;;;;;;;5031300;28;20320;-70
2021/08/03 07:08:23;;;;;;;4.35;3.20;;;;;;;;;;5031324;28;20710;-71
2021/08/03 07:10:52;;;;;;;6.13;2.75;;;;;;;;;;5029994;28;20849;-71
2021/08/03 07:13:17;;;;;;;4.28;1.98;;;;;;;;;;5033597;28;20209;-71
2021/08/03 07:15:43;;;;;;;6.97;1.55;;;;;;;;;;5031090;28;20284;-70
2021/08/03 07:18:10;;;;;;;2.30;1.58;;;;;;;;;;5032885;28;20618;-71
2021/08/03 07:20:37;;;;;;;2.97;1.48;;;;;;;;;;5031608;28;20184;-71
2021/08/03 07:23:02;;;;;;;3.88;1.02;;;;;;;;;;5021496;28;20200;-71
2021/08/03 07:25:27;;;;;;;4.40;1.30;;;;;;;;;;5033975;28;20671;-71
2021/08/03 07:27:53;;;;;;;3.13;1.73;;;;;;;;;;5033474;28;20179;-71
2021/08/03 07:30:18;;;;;;;1.57;1.20;;;;;;;;;;5032964;28;20228;-71
2021/08/03 07:32:43;;;;;;;2.20;1.60;;;;;;;;;;5031895;28;20459;-71
2021/08/03 07:35:09;;;;;;;3.08;1.55;;;;;;;;;;5038293;28;21126;-71
2021/08/03 07:37:35;;;;;;;3.95;1.83;;;;;;;;;;5039790;28;20243;-70
2021/08/03 07:40:00;;;;;;;1.88;1.55;;;;;;;;;;5042409;28;20182;-71
2021/08/03 07:42:25;;;;;;;2.33;1.60;;;;;;;;;;5035998;28;20693;-71
2021/08/03 07:44:51;;;;;;;3.47;1.42;;;;;;;;;;5034482;28;20427;-71
2021/08/03 07:47:16;;;;;;;2.23;1.07;;;;;;;;;;5048896;28;20229;-71
2021/08/03 07:49:42;;;;;;;4.90;1.00;;;;;;;;;;5037996;28;20497;-72
2021/08/03 07:52:07;;;;;;;1.75;0.90;;;;;;;;;;5035542;28;20264;-73
2021/08/03 07:54:32;;;;;;;2.97;0.90;;;;;;;;;;5031862;28;20189;-72
2021/08/03 07:56:58;;;;;;;2.92;1.17;;;;;;;;;;5034484;28;20218;-71
2021/08/03 07:59:23;;;;;;;2.35;0.90;;;;;;;;;;5034795;28;20247;-71
2021/08/03 08:01:48;;;;;;;2.90;0.70;;;;;;;;;;5037356;28;20667;-71
2021/08/03 08:04:14;;;;;;;4.55;1.13;;;;;;;;;;5039756;28;20678;-71
2021/08/03 08:06:39;;;;;;;4.43;1.50;;;;;;;;;;5041953;28;20258;-72
2021/08/03 08:09:04;;;;;;;2.70;0.90;;;;;;;;;;5036896;28;20569;-71
2021/08/03 08:11:29;;;;;;;6.17;1.90;;;;;;;;;;5041894;28;20460;-71
2021/08/03 08:13:54;;;;;;;5.35;1.00;;;;;;;;;;5039838;28;20914;-71
2021/08/03 08:16:20;;;;;;;3.55;1.02;;;;;;;;;;5040432;28;20197;-71
2021/08/03 08:18:45;;;;;;;2.57;1.13;;;;;;;;;;5038128;28;20181;-72
2021/08/03 08:21:10;;;;;;;4.87;1.23;;;;;;;;;;5039409;28;20450;-71
2021/08/03 08:23:35;;;;;;;3.33;1.80;;;;;;;;;;5030890;28;20484;-72
2021/08/03 08:26:01;;;;;;;2.78;1.25;;;;;;;;;;5021577;28;20205;-71
2021/08/03 08:28:26;;;;;;;1.63;1.00;;;;;;;;;;5032222;28;20252;-71
2021/08/03 08:30:52;;;;;;;3.83;0.88;;;;;;;;;;5026084;28;20179;-72
2021/08/03 08:33:17;;;;;;;3.20;0.95;;;;;;;;;;5038454;28;20256;-71
2021/08/03 08:35:42;;;;;;;4.93;1.10;;;;;;;;;;5031861;28;20288;-71
2021/08/03 08:38:08;;;;;;;3.88;1.10;;;;;;;;;;5035242;28;20939;-71
2021/08/03 08:40:33;;;;;;;2.78;1.05;;;;;;;;;;5035033;28;20174;-71
2021/08/03 08:42:58;;;;;;;2.97;1.17;;;;;;;;;;5036157;28;20646;-71
2021/08/03 08:45:23;;;;;;;3.78;1.10;;;;;;;;;;5039020;28;20260;-71
2021/08/03 08:47:49;;;;;;;2.97;1.50;;;;;;;;;;5038945;28;20245;-71
2021/08/03 08:50:15;;;;;;;3.45;1.10;;;;;;;;;;5037055;28;20434;-70
2021/08/03 08:52:41;;;;;;;1.98;1.30;;;;;;;;;;5034866;28;20251;-71
2021/08/03 08:55:07;;;;;;;5.57;1.48;;;;;;;;;;5017807;28;20560;-71
2021/08/03 08:57:33;;;;;;;1.83;1.20;;;;;;;;;;5033066;28;20221;-71
2021/08/03 08:59:58;;;;;;;2.72;1.50;;;;;;;;;;5030126;28;20652;-71
2021/08/03 09:02:53;;;;;;;4.38;1.05;;;;;;;;;;5037602;28;20197;-71
2021/08/03 09:05:27;;;;;;;3.17;1.13;;;;;;;;;;5016189;28;20297;-71
2021/08/03 09:07:54;;;;;;;3.80;1.40;;;;;;;;;;5025565;28;20189;-71
2021/08/03 09:10:46;;;;;;;2.55;1.45;;;;;;;;;;5037917;28;20628;-71
2021/08/03 09:13:14;;;;;;;6.32;1.83;;;;;;;;;;5030975;28;20606;-71
2021/08/03 09:15:43;;;;;;;3.72;1.60;;;;;;;;;;5022945;28;20216;-71
2021/08/03 09:18:23;;;;;;;2.72;1.90;;;;;;;;;;5021107;28;20192;-72
2021/08/03 09:20:48;;;;;;;5.10;2.67;;;;;;;;;;5039847;28;20185;-71
2021/08/03 09:23:14;;;;;;;4.47;2.05;;;;;;;;;;5032161;28;20200;-71
2021/08/03 09:25:50;;;;;;;5.68;2.10;;;;;;;;;;5026242;28;20210;-71
2021/08/03 09:28:15;;;;;;;2.97;1.48;;;;;;;;;;5032825;28;20170;-71
2021/08/03 09:30:40;;;;;;;3.95;1.67;;;;;;;;;;5032648;28;20193;-72
2021/08/03 09:33:05;;;;;;;4.13;2.63;;;;;;;;;;5037916;28;20221;-71
2021/08/03 09:35:31;;;;;;;3.78;2.40;;;;;;;;;;5033383;28;20293;-71
2021/08/03 09:37:57;;;;;;;4.28;2.00;;;;;;;;;;5039690;28;20184;-70
2021/08/03 09:40:28;;;;;;;2.67;1.83;;;;;;;;;;5033438;28;20189;-71
2021/08/03 09:43:00;;;;;;;6.88;3.85;;;;;;;;;;5035083;28;20174;-71
2021/08/03 09:45:25;;;;;;;5.10;3.72;;;;;;;;;;5021159;28;20212;-71
2021/08/03 09:47:50;;;;;;;6.22;3.47;;;;;;;;;;5037529;28;20185;-72
2021/08/03 09:50:17;;;;;;;4.83;3.93;;;;;;;;;;5031462;28;20213;-70
2021/08/03 09:52:43;;;;;;;4.13;2.83;;;;;;;;;;5039609;28;20603;-73
2021/08/03 09:55:12;;;;;;;4.88;3.40;;;;;;;;;;5035761;28;20771;-71
2021/08/03 09:57:38;;;;;;;6.90;4.25;;;;;;;;;;5030768;28;20666;-71
2021/08/03 10:00:23;;;;;;;6.32;3.47;;;;;;;;;;5031993;28;20213;-71
2021/08/03 10:02:48;;;;;;;3.95;3.38;;;;;;;;;;5035054;28;20181;-71
2021/08/03 10:05:14;;;;;;;4.27;3.87;;;;;;;;;;5019737;28;21615;-72
2021/08/03 10:07:39;;;;;;;4.32;3.50;;;;;;;;;;5038664;28;20426;-71
2021/08/03 10:10:04;;;;;;;5.27;4.43;;;;;;;;;;5040506;28;20212;-71
2021/08/03 10:12:29;;;;;;;7.25;5.20;;;;;;;;;;5018165;28;20446;-70
2021/08/03 10:14:55;;;;;;;7.83;4.53;;;;;;;;;;5032377;28;20189;-71
2021/08/03 10:17:20;;;;;;;7.18;4.80;;;;;;;;;;5037888;28;20533;-73
2021/08/03 10:19:45;;;;;;;5.07;4.10;;;;;;;;;;5036150;28;20685;-72
2021/08/03 10:22:26;;;;;;;8.00;5.53;;;;;;;;;;5031105;28;20188;-72
2021/08/03 10:24:56;;;;;;;9.27;5.07;;;;;;;;;;5029693;28;20435;-72
2021/08/03 10:27:22;;;;;;;8.13;5.53;;;;;;;;;;5032295;28;20249;-73
2021/08/03 10:29:48;;;;;;;6.20;4.88;;;;;;;;;;5028303;28;20868;-73
2021/08/03 10:32:32;;;;;;;11.32;5.38;;;;;;;;;;5030794;28;20265;-73
2021/08/03 10:34:58;;;;;;;8.57;5.13;;;;;;;;;;5032544;28;20621;-73
2021/08/03 10:37:24;;;;;;;8.60;4.88;;;;;;;;;;5032929;28;20182;-72
2021/08/03 10:39:51;;;;;;;5.50;4.63;;;;;;;;;;5037636;28;20208;-72
2021/08/03 10:42:16;;;;;;;7.47;5.40;;;;;;;;;;5030739;28;20272;-72
2021/08/03 10:44:45;;;;;;;9.45;5.00;;;;;;;;;;5037963;28;20316;-76
2021/08/03 10:47:29;;;;;;;6.70;4.47;;;;;;;;;;5035870;28;20550;-74
2021/08/03 10:49:56;;;;;;;6.43;4.35;;;;;;;;;;5034442;28;20173;-76
2021/08/03 10:52:39;;;;;;;6.57;4.82;;;;;;;;;;5020708;28;20228;-75
2021/08/03 10:55:05;;;;;;;5.40;4.90;;;;;;;;;;5039596;28;20175;-76
2021/08/03 10:57:30;;;;;;;7.47;5.15;;;;;;;;;;5037437;28;20251;-76
2021/08/03 10:59:59;;;;;;;13.23;5.20;;;;;;;;;;5037847;28;20243;-72
2021/08/03 11:02:25;;;;;;;8.75;4.40;;;;;;;;;;5024370;28;20185;-72
2021/08/03 11:04:52;;;;;;;5.60;3.83;;;;;;;;;;5044724;28;20177;-72
2021/08/03 11:07:28;;;;;;;8.13;4.60;;;;;;;;;;5027306;28;20592;-72
2021/08/03 11:10:02;;;;;;;7.80;5.00;;;;;;;;;;5041033;28;20173;-72
2021/08/03 11:12:44;;;;;;;6.53;3.60;;;;;;;;;;5033663;28;20245;-72
2021/08/03 11:15:21;;;;;;;7.15;4.40;;;;;;;;;;5038488;28;20236;-73
2021/08/03 11:17:53;;;;;;;8.68;3.92;;;;;;;;;;5032520;28;20177;-73
2021/08/03 11:20:34;;;;;;;4.25;3.03;;;;;;;;;;5040459;28;20206;-72
2021/08/03 11:23:09;;;;;;;7.22;4.10;;;;;;;;;;5036449;28;20654;-72
2021/08/03 11:25:35;;;;;;;6.88;3.65;;;;;;;;;;5037982;28;20579;-72
2021/08/03 11:28:10;;;;;;;5.15;3.92;;;;;;;;;;5040381;28;20177;-73
2021/08/03 11:30:35;;;;;;;11.30;4.25;;;;;;;;;;5034601;28;20406;-73
2021/08/03 11:33:00;;;;;;;11.45;5.68;;;;;;;;;;5033267;28;20346;-72
2021/08/03 11:35:26;;;;;;;9.48;5.40;;;;;;;;;;5038815;28;20233;-73
2021/08/03 11:37:52;;;;;;;6.25;5.35;;;;;;;;;;5039213;28;20520;-72
2021/08/03 11:40:17;;;;;;;5.60;4.73;;;;;;;;;;5037391;28;20714;-72
2021/08/03 11:42:43;;;;;;;8.90;5.38;;;;;;;;;;5036208;28;20487;-73
2021/08/03 11:45:11;;;;;;;6.10;5.28;;;;;;;;;;5038586;28;20284;-73
2021/08/03 11:47:41;;;;;;;7.88;6.13;;;;;;;;;;5036045;28;20190;-72
2021/08/03 11:50:07;;;;;;;7.95;6.18;;;;;;;;;;5035884;28;21099;-72
2021/08/03 11:52:32;;;;;;;7.03;6.43;;;;;;;;;;5040252;28;20203;-71
2021/08/03 11:54:57;;;;;;;9.18;7.10;;;;;;;;;;5036310;28;20178;-72
2021/08/03 11:57:24;;;;;;;8.63;6.53;;;;;;;;;;5032566;28;20166;-71
2021/08/03 11:59:56;;;;;;;10.05;7.68;;;;;;;;;;5037726;28;20790;-72
2021/08/03 12:02:21;;;;;;;7.93;7.20;;;;;;;;;;5021744;28;20212;-72
2021/08/03 12:05:01;;;;;;;8.83;8.03;;;;;;;;;;5037461;28;20185;-72
2021/08/03 12:07:26;;;;;;;11.82;7.30;;;;;;;;;;5020732;28;20443;-72
2021/08/03 12:09:52;;;;;;;6.95;6.25;;;;;;;;;;5037077;28;20262;-72
2021/08/03 12:12:17;;;;;;;8.00;6.70;;;;;;;;;;5038017;28;20213;-72
2021/08/03 12:14:42;;;;;;;7.87;6.93;;;;;;;;;;5040236;28;21061;-72
2021/08/03 12:17:23;;;;;;;7.93;6.40;;;;;;;;;;5032751;28;20481;-72
2021/08/03 12:19:48;;;;;;;10.23;7.82;;;;;;;;;;5035529;28;20951;-72
2021/08/03 12:22:26;;;;;;;8.47;7.67;;;;;;;;;;5039990;28;20560;-72
2021/08/03 12:24:55;;;;;;;8.13;7.25;;;;;;;;;;5040712;28;20513;-72
2021/08/03 12:27:21;;;;;;;10.27;8.13;;;;;;;;;;5038330;28;20971;-72
2021/08/03 12:29:46;;;;;;;8.15;7.35;;;;;;;;;;5019144;28;20185;-72
2021/08/03 12:32:11;;;;;;;9.57;8.57;;;;;;;;;;5030851;28;20206;-72
2021/08/03 12:34:37;;;;;;;12.03;10.83;;;;;;;;;;5037037;28;20418;-72
2021/08/03 12:37:03;;;;;;;11.52;10.32;;;;;;;;;;5037470;28;21022;-72
2021/08/03 12:39:36;;;;;;;10.88;9.85;;;;;;;;;;5032956;28;20683;-72
2021/08/03 12:42:03;;;;;;;10.43;9.35;;;;;;;;;;5039756;28;20281;-72
2021/08/03 12:44:29;;;;;;;12.85;10.63;;;;;;;;;;5024110;28;20624;-72
2021/08/03 12:46:54;;;;;;;10.90;9.80;;;;;;;;;;5031612;28;20299;-71
2021/08/03 12:49:32;;;;;;;11.27;10.07;;;;;;;;;;5035792;28;20188;-72
2021/08/03 12:52:07;;;;;;;10.68;9.60;;;;;;;;;;5031753;28;20221;-72
2021/08/03 12:54:33;;;;;;;11.43;10.27;;;;;;;;;;5034250;28;20581;-72
2021/08/03 12:56:59;;;;;;;10.98;9.73;;;;;;;;;;5034608;28;20263;-72
2021/08/03 12:59:35;;;;;;;13.98;10.93;;;;;;;;;;5036588;28;20650;-71
2021/08/03 13:02:00;;;;;;;13.13;9.98;;;;;;;;;;5034502;28;20780;-71
2021/08/03 13:04:26;;;;;;;13.15;10.80;;;;;;;;;;5023965;28;20182;-72
2021/08/03 13:06:52;;;;;;;11.60;8.60;;;;;;;;;;5039782;28;20218;-72
2021/08/03 13:09:17;;;;;;;10.25;8.57;;;;;;;;;;5040675;28;20540;-71
2021/08/03 13:11:42;;;;;;;12.30;10.27;;;;;;;;;;5032667;28;20204;-72
2021/08/03 13:14:07;;;;;;;12.27;10.10;;;;;;;;;;5038702;28;20188;-72
2021/08/03 13:16:32;;;;;;;11.03;9.93;;;;;;;;;;5040005;28;20209;-72
2021/08/03 13:18:57;;;;;;;11.57;9.80;;;;;;;;;;5039039;28;20183;-72
2021/08/03 13:21:23;;;;;;;11.77;10.57;;;;;;;;;;5032752;28;20221;-72
2021/08/03 13:23:48;;;;;;;10.23;9.33;;;;;;;;;;5022136;28;20178;-72
2021/08/03 13:26:13;;;;;;;9.65;8.68;;;;;;;;;;5032399;28;20263;-72
2021/08/03 13:28:38;;;;;;;9.47;8.53;;;;;;;;;;5017139;28;20182;-72
2021/08/03 13:31:04;;;;;;;12.40;10.35;;;;;;;;;;5020655;28;20191;-72
2021/08/03 13:33:29;;;;;;;11.10;9.27;;;;;;;;;;5036752;28;20178;-72
2021/08/03 13:35:54;;;;;;;11.50;9.80;;;;;;;;;;5033128;28;20433;-72
2021/08/03 13:38:19;;;;;;;10.70;9.57;;;;;;;;;;5036304;28;20647;-72
2021/08/03 13:40:46;;;;;;;12.53;9.50;;;;;;;;;;5033628;28;20423;-72
2021/08/03 13:43:11;;;;;;;13.40;10.20;;;;;;;;;;5033608;28;20421;-72
2021/08/03 13:45:36;;;;;;;10.57;9.47;;;;;;;;;;5031619;28;20205;-71
2021/08/03 13:48:03;;;;;;;10.80;8.90;;;;;;;;;;5020721;28;20887;-72
2021/08/03 13:50:28;;;;;;;10.55;9.38;;;;;;;;;;5030605;28;20556;-71
2021/08/03 13:52:54;;;;;;;12.27;9.73;;;;;;;;;;5033096;28;20220;-72
2021/08/03 13:55:20;;;;;;;10.05;9.05;;;;;;;;;;5032196;28;20201;-71
2021/08/03 13:57:45;;;;;;;10.70;9.32;;;;;;;;;;5029987;28;20657;-72
2021/08/03 14:00:10;;;;;;;16.33;10.30;;;;;;;;;;5041893;28;20178;-71
2021/08/03 14:02:35;;;;;;;12.27;11.02;;;;;;;;;;5046722;28;20781;-72
2021/08/03 14:05:01;;;;;;;11.13;10.03;;;;;;;;;;5023458;28;20186;-72
2021/08/03 14:07:26;;;;;;;10.55;8.85;;;;;;;;;;5075404;22;20512;-71
2021/08/03 14:09:51;;;;;;;10.37;9.00;;;;;;;;;;5070806;28;20170;-69
2021/08/03 14:12:17;;;;;;;11.80;10.60;;;;;;;;;;5057340;28;20472;-71
2021/08/03 14:14:42;;;;;;;11.05;9.93;;;;;;;;;;5069433;28;20185;-68
2021/08/03 14:17:07;;;;;;;11.30;10.15;;;;;;;;;;5056779;28;20209;-71
2021/08/03 14:19:32;;;;;;;12.60;10.80;;;;;;;;;;5050585;28;20185;-70
2021/08/03 14:21:57;;;;;;;12.38;10.38;;;;;;;;;;5036651;28;20419;-70
2021/08/03 14:24:23;;;;;;;11.80;10.60;;;;;;;;;;5047540;28;20221;-71
2021/08/03 14:26:48;;;;;;;12.17;10.97;;;;;;;;;;5035822;28;20508;-71
2021/08/03 14:29:13;;;;;;;13.23;11.93;;;;;;;;;;5035092;28;20477;-71
2021/08/03 14:31:39;;;;;;;12.23;11.07;;;;;;;;;;5032887;28;20458;-71
2021/08/03 14:34:05;;;;;;;11.90;10.45;;;;;;;;;;5037810;28;20431;-71
2021/08/03 14:36:30;;;;;;;13.40;11.75;;;;;;;;;;5031798;28;20224;-71
2021/08/03 14:38:55;;;;;;;10.98;9.95;;;;;;;;;;5038132;28;20185;-71
2021/08/03 14:41:23;;;;;;;11.30;10.23;;;;;;;;;;5032121;28;20178;-71